createdAt,value
2022-11-03T05:10:54.651Z,101823.69
2022-11-03T05:13:27.327Z,101820.69
2022-11-03T05:16:02.082Z,101823.94
2022-11-03T05:18:32.786Z,101824.19
2022-11-03T05:21:04.789Z,101811.28
2022-11-03T05:23:40.405Z,101817.47
2022-11-03T05:26:15.661Z,101819.91
2022-11-03T05:28:48.605Z,101825.19
2022-11-03T05:31:26.639Z,101826.13
2022-11-03T05:33:58.321Z,101824.41
2022-11-03T05:36:30.676Z,101831.38
2022-11-03T05:39:27.283Z,101824.31
2022-11-03T05:41:55.515Z,101824.50
2022-11-03T05:44:36.995Z,101820.53
2022-11-03T05:47:18.886Z,101820.53
2022-11-03T05:49:46.495Z,101822.22
2022-11-03T05:52:27.031Z,101821.56
2022-11-03T05:54:58.934Z,101817.59
2022-11-03T05:57:30.202Z,101822.88
2022-11-03T05:59:58.179Z,101827.72
2022-11-03T06:02:39.174Z,101828.94
2022-11-03T06:05:20.483Z,101833.59
2022-11-03T06:07:50.295Z,101831.72
2022-11-03T06:10:25.575Z,101830.28
2022-11-03T06:13:14.715Z,101844.91
2022-11-03T06:15:45.638Z,101840.81
2022-11-03T06:18:22.369Z,101847.72
2022-11-03T06:20:58.640Z,101848.47
2022-11-03T06:23:26.903Z,101856.34
2022-11-03T06:25:56.400Z,101850.06
2022-11-03T06:28:29.418Z,101837.25
2022-11-03T06:30:57.002Z,101841.66
2022-11-03T06:33:28.091Z,101848.84
2022-11-03T06:36:00.553Z,101838.16
2022-11-03T06:38:30.962Z,101842.59
2022-11-03T06:40:58.988Z,101846.28
2022-11-03T06:43:37.071Z,101847.34
2022-11-03T06:46:19.797Z,101854.34
2022-11-03T06:48:47.110Z,101851.84
2022-11-03T06:51:26.941Z,101852.50
2022-11-03T06:53:58.897Z,101851.25
2022-11-03T06:56:35.221Z,101855.22
2022-11-03T06:59:03.123Z,101859.91
2022-11-03T07:01:34.166Z,101864.19
2022-11-03T07:04:19.306Z,101851.41
2022-11-03T07:06:53.018Z,101853.94
2022-11-03T07:09:24.027Z,101858.28
2022-11-03T07:11:55.120Z,101860.63
2022-11-03T07:14:28.760Z,101853.50
2022-11-03T07:17:02.734Z,101854.41
2022-11-03T07:19:35.063Z,101853.94
2022-11-03T07:22:09.482Z,101859.91
2022-11-03T07:24:41.167Z,101853.13
2022-11-03T07:27:14.798Z,101847.50
2022-11-03T07:29:43.209Z,101844.66
2022-11-03T07:32:19.950Z,101855.50
2022-11-03T07:34:49.369Z,101852.34
2022-11-03T07:37:23.259Z,101840.06
2022-11-03T07:39:52.451Z,101837.97
2022-11-03T07:42:24.371Z,101833.78
2022-11-03T07:44:56.046Z,101830.78
2022-11-03T07:47:27.633Z,101827.81
2022-11-03T07:49:56.625Z,101827.81
2022-11-03T07:52:25.790Z,101827.59
2022-11-03T07:54:56.904Z,101829.09
2022-11-03T07:57:31.123Z,101824.25
2022-11-03T08:00:08.826Z,101830.00
2022-11-03T08:02:54.961Z,101832.06
2022-11-03T08:05:22.952Z,101829.47
2022-11-03T08:07:50.146Z,101819.53
2022-11-03T08:10:18.346Z,101814.16
2022-11-03T08:12:45.569Z,101818.53
2022-11-03T08:15:12.807Z,101817.47
2022-11-03T08:17:40.523Z,101814.72
2022-11-03T08:20:08.213Z,101813.50
2022-11-03T08:22:35.858Z,101806.69
2022-11-03T08:25:03.155Z,101807.19
2022-11-03T08:27:30.437Z,101798.88
2022-11-03T08:29:58.297Z,101789.19
2022-11-03T08:32:25.643Z,101799.75
2022-11-03T08:34:52.885Z,101790.03
2022-11-03T08:37:21.050Z,101782.03
2022-11-03T08:39:48.699Z,101787.94
2022-11-03T08:42:15.934Z,101786.69
2022-11-03T08:44:43.300Z,101791.28
2022-11-03T08:47:11.679Z,101788.72
2022-11-03T08:49:39.522Z,101786.28
2022-11-03T08:52:07.232Z,101787.97
2022-11-03T08:54:34.730Z,101781.34
2022-11-03T08:57:02.075Z,101780.94
2022-11-03T08:59:29.299Z,101775.25
2022-11-03T09:01:57.675Z,101790.25
2022-11-03T09:04:25.391Z,101787.97
2022-11-03T09:06:52.932Z,101788.72
2022-11-03T09:12:11.259Z,101779.78
2022-11-03T09:14:39.066Z,101771.22
2022-11-03T09:17:07.084Z,101773.75
2022-11-03T09:19:34.914Z,101770.38
2022-11-03T09:22:02.227Z,101784.28
2022-11-03T09:24:30.428Z,101775.53
2022-11-03T09:27:02.017Z,101778.06
2022-11-03T09:29:51.720Z,101775.31
2022-11-03T09:32:22.934Z,101770.47
2022-11-03T09:34:51.293Z,101762.22
2022-11-03T09:37:19.443Z,101758.75
2022-11-03T09:39:49.872Z,101757.78
2022-11-03T09:42:18.662Z,101765.84
2022-11-03T09:44:48.960Z,101752.53
2022-11-03T09:47:25.082Z,101750.09
2022-11-03T09:49:58.182Z,101751.28
2022-11-03T09:52:25.655Z,101754.72
2022-11-03T09:54:55.544Z,101747.72
2022-11-03T09:57:24.047Z,101747.13
2022-11-03T09:59:52.169Z,101743.16
2022-11-03T10:02:27.520Z,101747.19
2022-11-03T10:04:57.557Z,101750.56
2022-11-03T10:07:27.186Z,101750.50
2022-11-03T10:09:57.935Z,101745.00
2022-11-03T10:12:26.429Z,101723.13
2022-11-03T10:14:54.933Z,101724.84
2022-11-03T10:17:27.089Z,101731.56
2022-11-03T10:19:56.781Z,101726.50
2022-11-03T10:22:24.125Z,101719.09
2022-11-03T10:25:30.436Z,101718.31
2022-11-03T10:28:20.180Z,101717.59
2022-11-03T10:31:17.002Z,101708.31
2022-11-03T10:33:54.583Z,101698.81
2022-11-03T10:36:28.814Z,101698.41
2022-11-03T10:38:56.873Z,101697.13
2022-11-03T10:41:33.449Z,101699.25
2022-11-03T10:44:02.223Z,101689.94
2022-11-03T10:46:50.662Z,101677.69
2022-11-03T10:49:20.122Z,101679.47
2022-11-03T10:51:51.349Z,101678.03
2022-11-03T10:54:22.787Z,101676.72
2022-11-03T10:56:52.531Z,101663.09
2022-11-03T10:59:31.879Z,101670.13
2022-11-03T11:02:01.374Z,101658.75
2022-11-03T11:04:28.870Z,101651.63
2022-11-03T11:06:57.124Z,101648.94
2022-11-03T11:09:26.547Z,101648.69
2022-11-03T11:12:18.570Z,101639.44
2022-11-03T11:14:55.774Z,101638.66
2022-11-03T11:17:44.530Z,101636.25
2022-11-03T11:20:33.870Z,101634.50
2022-11-03T11:23:41.512Z,101638.22
2022-11-03T11:26:09.999Z,101641.75
2022-11-03T11:28:38.258Z,101643.75
2022-11-03T11:31:29.822Z,101634.28
2022-11-03T11:34:09.428Z,101636.06
2022-11-03T11:37:04.235Z,101628.28
2022-11-03T11:39:32.059Z,101614.66
2022-11-03T11:42:21.786Z,101605.59
2022-11-03T11:44:51.506Z,101617.72
2022-11-03T11:47:34.616Z,101613.78
2022-11-03T11:50:10.937Z,101612.13
2022-11-03T11:52:47.412Z,101608.47
2022-11-03T11:55:30.376Z,101601.06
2022-11-03T11:58:00.792Z,101581.00
2022-11-03T12:00:32.528Z,101569.09
2022-11-03T12:03:01.181Z,101561.38
2022-11-03T12:05:34.402Z,101563.63
2022-11-03T12:08:23.681Z,101545.50
2022-11-03T12:11:13.112Z,101541.56
2022-11-03T12:13:47.579Z,101534.88
2022-11-03T12:16:32.056Z,101526.88
2022-11-03T12:19:36.513Z,101518.44
2022-11-03T12:22:10.233Z,101500.06
2022-11-03T12:25:26.982Z,101501.34
2022-11-03T12:27:54.433Z,101492.59
2022-11-03T12:30:21.728Z,101488.97
2022-11-03T12:32:49.565Z,101492.88
2022-11-03T12:35:17.115Z,101485.91
2022-11-03T12:37:44.692Z,101483.97
2022-11-03T12:40:13.819Z,101483.78
2022-11-03T12:42:41.208Z,101466.00
2022-11-03T12:45:09.375Z,101461.31
2022-11-03T12:47:37.037Z,101444.97
2022-11-03T12:50:05.046Z,101441.97
2022-11-03T12:52:32.310Z,101444.13
2022-11-03T12:55:00.344Z,101427.13
2022-11-03T12:57:28.026Z,101417.81
2022-11-03T12:59:55.827Z,101409.66
2022-11-03T13:02:23.481Z,101396.50
2022-11-03T13:04:50.853Z,101398.81
2022-11-03T13:07:25.010Z,101384.81
2022-11-03T13:09:55.128Z,101372.44
2022-11-03T13:12:31.388Z,101373.66
2022-11-03T13:15:00.705Z,101371.03
2022-11-03T13:17:35.769Z,101368.63
2022-11-03T13:20:16.409Z,101352.66
2022-11-03T13:22:43.729Z,101347.31
2022-11-03T13:25:11.542Z,101345.84
2022-11-03T13:27:38.860Z,101357.84
2022-11-03T13:30:07.789Z,101356.50
2022-11-03T13:32:35.134Z,101342.53
2022-11-03T13:35:20.742Z,101347.84
2022-11-03T13:37:55.334Z,101340.59
2022-11-03T13:43:11.729Z,101337.25
2022-11-03T13:45:39.519Z,101327.06
2022-11-03T13:49:21.427Z,101306.47
2022-11-03T13:50:54.510Z,101292.72
2022-11-03T13:56:14.972Z,101310.00
2022-11-03T14:01:35.062Z,101326.03
2022-11-03T14:06:50.282Z,101340.69
2022-11-03T14:09:18.136Z,101323.72
2022-11-03T14:12:03.855Z,101327.19
2022-11-03T14:14:31.402Z,101318.78
2022-11-03T14:16:58.652Z,101315.41
2022-11-03T14:19:38.128Z,101308.31
2022-11-03T14:22:08.935Z,101327.94
2022-11-03T14:24:36.274Z,101331.66
2022-11-03T14:27:03.559Z,101326.41
2022-11-03T14:29:31.209Z,101317.75
2022-11-03T14:31:58.933Z,101317.50
2022-11-03T14:34:26.354Z,101312.19
2022-11-03T14:36:54.357Z,101299.84
2022-11-03T14:39:22.210Z,101298.22
2022-11-03T14:42:04.666Z,101294.38
2022-11-03T14:44:36.988Z,101296.91
2022-11-03T14:47:06.359Z,101300.94
2022-11-03T14:49:35.000Z,101292.50
2022-11-03T14:52:03.966Z,101294.75
2022-11-03T14:54:32.127Z,101290.28
2022-11-03T14:56:59.968Z,101295.72
2022-11-03T14:59:27.403Z,101284.88
2022-11-03T15:01:55.808Z,101273.97
2022-11-03T15:04:23.503Z,101268.44
2022-11-03T15:06:50.925Z,101257.09
2022-11-03T15:09:19.506Z,101267.88
2022-11-03T15:11:47.277Z,101265.72
2022-11-03T15:14:14.959Z,101269.31
2022-11-03T15:16:43.875Z,101262.97
2022-11-03T15:19:11.137Z,101255.41
2022-11-03T15:21:38.674Z,101256.88
2022-11-03T15:26:54.238Z,101253.66
2022-11-03T15:29:23.825Z,101250.47
2022-11-03T15:31:51.259Z,101237.31
2022-11-03T15:34:18.695Z,101226.47
2022-11-03T15:36:46.272Z,101221.81
2022-11-03T15:39:13.704Z,101229.16
2022-11-03T15:41:41.010Z,101228.59
2022-11-03T15:44:08.303Z,101222.66
2022-11-03T15:46:36.097Z,101218.03
2022-11-03T15:49:04.207Z,101217.19
2022-11-03T15:51:31.431Z,101218.59
2022-11-03T15:53:59.555Z,101210.09
2022-11-03T15:56:27.809Z,101205.22
2022-11-03T15:58:55.145Z,101199.59
2022-11-03T16:01:22.625Z,101192.91
2022-11-03T16:03:50.445Z,101182.22
2022-11-03T16:06:17.754Z,101183.25
2022-11-03T16:08:45.664Z,101182.16
2022-11-03T16:11:12.918Z,101178.69
2022-11-03T16:13:40.230Z,101169.50
2022-11-03T16:16:07.651Z,101167.03
2022-11-03T16:18:35.005Z,101175.06
2022-11-03T16:21:02.701Z,101163.47
2022-11-03T16:23:30.275Z,101167.81
2022-11-03T16:25:58.031Z,101162.63
2022-11-03T16:28:25.825Z,101152.69
2022-11-03T16:30:54.656Z,101148.91
2022-11-03T16:33:22.785Z,101135.63
2022-11-03T16:35:49.991Z,101135.44
2022-11-03T16:38:17.270Z,101131.88
2022-11-03T16:40:44.705Z,101129.34
2022-11-03T16:43:12.305Z,101129.59
2022-11-03T16:45:40.027Z,101129.72
2022-11-03T16:48:07.825Z,101134.22
2022-11-03T16:50:35.522Z,101121.56
2022-11-03T16:53:03.782Z,101115.53
2022-11-03T16:55:31.607Z,101118.88
2022-11-03T16:57:58.814Z,101119.19
2022-11-03T17:00:26.239Z,101121.25
2022-11-03T17:02:53.480Z,101120.34
2022-11-03T17:05:21.597Z,101112.47
2022-11-03T17:07:53.668Z,101109.94
2022-11-03T17:10:24.642Z,101116.56
2022-11-03T17:12:51.888Z,101115.06
2022-11-03T17:15:19.121Z,101109.78
2022-11-03T17:17:46.942Z,101102.44
2022-11-03T17:20:14.962Z,101112.44
2022-11-03T17:22:42.341Z,101117.59
2022-11-03T17:25:11.967Z,101114.34
2022-11-03T17:27:51.715Z,101108.41
2022-11-03T17:30:21.873Z,101111.97
2022-11-03T17:32:55.474Z,101114.94
2022-11-03T17:35:38.634Z,101106.13
2022-11-03T17:38:13.696Z,101097.34
2022-11-03T17:40:46.499Z,101095.13
2022-11-03T17:43:26.974Z,101090.31
2022-11-03T17:45:54.555Z,101090.34
2022-11-03T17:48:23.890Z,101093.09
2022-11-03T17:50:54.555Z,101092.94
2022-11-03T17:53:25.173Z,101086.91
2022-11-03T17:56:23.363Z,101082.75
2022-11-03T17:58:46.298Z,101082.13
2022-11-03T18:01:27.256Z,101084.84
2022-11-03T18:03:55.347Z,101084.88
2022-11-03T18:06:22.626Z,101080.47
2022-11-03T18:08:50.135Z,101080.75
2022-11-03T18:11:44.461Z,101069.25
2022-11-03T18:14:12.223Z,101054.41
2022-11-03T18:16:40.561Z,101054.56
2022-11-03T18:19:13.771Z,101057.16
2022-11-03T18:21:41.490Z,101043.81
2022-11-03T18:24:17.963Z,101041.44
2022-11-03T18:26:45.835Z,101038.31
2022-11-03T18:29:13.244Z,101033.81
2022-11-03T18:31:50.445Z,101029.47
2022-11-03T18:34:24.187Z,101036.47
2022-11-03T18:36:52.727Z,101019.97
2022-11-03T18:39:26.407Z,101027.03
2022-11-03T18:41:54.224Z,101021.91
2022-11-03T18:44:24.224Z,101008.59
2022-11-03T18:46:52.720Z,101011.50
2022-11-03T18:49:20.507Z,101001.72
2022-11-03T18:51:51.111Z,100997.47
2022-11-03T18:54:23.629Z,100997.47
2022-11-03T18:56:53.147Z,100992.13
2022-11-03T18:59:26.226Z,100982.50
2022-11-03T19:01:54.353Z,100982.75
2022-11-03T19:04:21.675Z,100975.88
2022-11-03T19:06:51.824Z,100969.09
2022-11-03T19:09:22.375Z,100970.00
2022-11-03T19:11:50.983Z,100966.81
2022-11-03T19:14:31.739Z,100962.94
2022-11-03T19:17:23.890Z,100941.97
2022-11-03T19:19:54.146Z,100932.44
2022-11-03T19:22:23.067Z,100927.38
2022-11-03T19:24:50.497Z,100923.28
2022-11-03T19:27:27.226Z,100912.25
2022-11-03T19:29:57.342Z,100906.03
2022-11-03T19:32:29.256Z,100903.28
2022-11-03T19:35:04.414Z,100889.22
2022-11-03T19:37:35.847Z,100880.81
2022-11-03T19:40:08.502Z,100885.91
2022-11-03T19:42:38.453Z,100882.09
2022-11-03T19:45:17.274Z,100872.44
2022-11-03T19:48:18.089Z,100867.91
2022-11-03T19:50:38.837Z,100865.81
2022-11-03T19:53:07.747Z,100872.66
2022-11-03T19:55:41.198Z,100868.69
2022-11-03T19:58:20.745Z,100858.50
2022-11-03T20:00:49.324Z,100853.31
2022-11-03T20:03:16.991Z,100845.63
2022-11-03T20:05:49.662Z,100851.78
2022-11-03T20:08:21.187Z,100845.63
2022-11-03T20:10:48.662Z,100834.84
2022-11-03T20:13:19.977Z,100826.28
2022-11-03T20:15:47.543Z,100831.31
2022-11-03T20:18:15.935Z,100821.34
2022-11-03T20:20:45.382Z,100806.56
2022-11-03T20:23:30.663Z,100794.38
2022-11-03T20:25:58.903Z,100782.53
2022-11-03T20:28:29.599Z,100790.94
2022-11-03T20:30:57.279Z,100802.81
2022-11-03T20:33:25.332Z,100821.50
2022-11-03T20:35:54.463Z,100847.75
2022-11-03T20:38:24.810Z,100836.78
2022-11-03T20:40:58.664Z,100808.63
2022-11-03T20:43:29.814Z,100793.63
2022-11-03T20:45:58.258Z,100775.72
2022-11-03T20:48:25.675Z,100771.63
2022-11-03T20:50:54.029Z,100777.19
2022-11-03T20:53:24.047Z,100771.38
2022-11-03T20:55:52.307Z,100770.75
2022-11-03T20:58:19.751Z,100775.13
2022-11-03T21:00:48.848Z,100787.59
2022-11-03T21:03:45.049Z,100785.31
2022-11-03T21:06:16.459Z,100755.09
2022-11-03T21:08:48.165Z,100750.38
2022-11-03T21:11:29.609Z,100747.78
2022-11-03T21:14:16.752Z,100740.47
2022-11-03T21:17:02.905Z,100729.00
2022-11-03T21:19:51.006Z,100717.72
2022-11-03T21:22:50.822Z,100704.84
2022-11-03T21:25:16.826Z,100700.22
2022-11-03T21:27:44.158Z,100709.28
2022-11-03T21:30:17.105Z,100706.91
2022-11-03T21:32:44.389Z,100696.50
2022-11-03T21:35:18.187Z,100667.16
2022-11-03T21:37:45.639Z,100664.88
2022-11-03T21:40:13.405Z,100670.13
2022-11-03T21:42:59.446Z,100677.19
2022-11-03T21:45:26.843Z,100666.09
2022-11-03T21:48:14.732Z,100666.47
2022-11-03T21:51:04.647Z,100655.25
2022-11-03T21:53:32.368Z,100633.53
